createdAt,value
2023-04-29T00:00:07.828Z,96812.31
2023-04-29T00:03:02.586Z,96821.63
2023-04-29T00:05:48.669Z,96816.03
2023-04-29T00:08:34.472Z,96816.63
2023-04-29T00:11:20.657Z,96811.59
2023-04-29T00:14:06.329Z,96808.94
2023-04-29T00:16:51.818Z,96803.06
2023-04-29T00:19:37.230Z,96807.59
2023-04-29T00:22:22.886Z,96810.00
2023-04-29T00:25:09.025Z,96806.78
2023-04-29T00:27:54.618Z,96803.03
2023-04-29T00:30:40.083Z,96804.34
2023-04-29T00:33:25.967Z,96802.97
2023-04-29T00:36:11.520Z,96803.47
2023-04-29T00:38:57.568Z,96792.53
2023-04-29T00:41:43.351Z,96799.72
2023-04-29T00:44:28.712Z,96803.41
2023-04-29T00:47:14.064Z,96803.97
2023-04-29T00:49:59.932Z,96804.50
2023-04-29T00:52:46.145Z,96805.31
2023-04-29T00:55:33.550Z,96809.34
2023-04-29T00:58:20.121Z,96809.34
2023-04-29T01:01:05.502Z,96806.69
2023-04-29T01:03:51.654Z,96807.47
2023-04-29T01:06:57.410Z,96803.19
2023-04-29T01:10:31.590Z,96811.72
2023-04-29T01:13:38.118Z,96797.16
2023-04-29T01:16:39.525Z,96807.28
2023-04-29T01:19:48.148Z,96802.03
2023-04-29T01:22:33.843Z,96806.28
2023-04-29T01:25:19.628Z,96805.25
2023-04-29T01:28:40.914Z,96806.81
2023-04-29T01:31:39.049Z,96812.13
2023-04-29T01:34:50.577Z,96803.38
2023-04-29T01:37:57.636Z,96801.50
2023-04-29T01:40:49.982Z,96797.81
2023-04-29T01:43:41.845Z,96795.72
2023-04-29T01:46:38.812Z,96789.84
2023-04-29T01:49:28.736Z,96791.97
2023-04-29T01:52:14.396Z,96790.09
2023-04-29T01:55:04.905Z,96788.22
2023-04-29T01:57:59.455Z,96788.75
2023-04-29T02:01:03.914Z,96787.13
2023-04-29T02:03:51.872Z,96790.06
2023-04-29T02:06:37.602Z,96794.00
2023-04-29T02:09:24.172Z,96794.25
2023-04-29T02:12:14.066Z,96784.94
2023-04-29T02:15:00.414Z,96778.53
2023-04-29T02:17:46.993Z,96777.16
2023-04-29T02:20:32.440Z,96773.16
2023-04-29T02:23:17.893Z,96769.94
2023-04-29T02:26:06.412Z,96766.50
2023-04-29T02:28:52.714Z,96781.59
2023-04-29T02:31:39.789Z,96773.03
2023-04-29T02:34:25.446Z,96773.47
2023-04-29T02:37:12.766Z,96781.88
2023-04-29T02:39:58.510Z,96788.34
2023-04-29T02:42:43.989Z,96790.63
2023-04-29T02:45:29.493Z,96789.19
2023-04-29T02:48:14.926Z,96785.91
2023-04-29T02:51:00.637Z,96788.00
2023-04-29T02:53:46.130Z,96793.22
2023-04-29T02:56:31.699Z,96791.28
2023-04-29T02:59:17.140Z,96784.06
2023-04-29T03:02:02.721Z,96789.06
2023-04-29T03:04:48.235Z,96785.59
2023-04-29T03:07:33.678Z,96780.78
2023-04-29T03:10:19.281Z,96785.78
2023-04-29T03:13:05.060Z,96780.22
2023-04-29T03:15:52.057Z,96781.00
2023-04-29T03:18:37.638Z,96774.72
2023-04-29T03:21:25.435Z,96775.06
2023-04-29T03:24:11.491Z,96775.88
2023-04-29T03:26:57.063Z,96773.53
2023-04-29T03:29:42.708Z,96776.84
2023-04-29T03:32:29.163Z,96776.19
2023-04-29T03:35:15.873Z,96779.47
2023-04-29T03:38:21.690Z,96780.06
2023-04-29T03:41:07.646Z,96767.97
2023-04-29T03:43:54.991Z,96769.91
2023-04-29T03:46:40.607Z,96770.75
2023-04-29T03:49:26.246Z,96774.28
2023-04-29T03:52:12.778Z,96777.81
2023-04-29T03:54:58.527Z,96770.19
2023-04-29T03:57:44.077Z,96770.81
2023-04-29T04:00:31.649Z,96778.03
2023-04-29T04:03:22.322Z,96767.94
2023-04-29T04:06:08.073Z,96779.91
2023-04-29T04:08:54.165Z,96780.22
2023-04-29T04:11:44.689Z,96779.47
2023-04-29T04:14:31.759Z,96785.59
2023-04-29T04:17:17.586Z,96788.22
2023-04-29T04:20:03.103Z,96793.53
2023-04-29T04:22:48.552Z,96795.72
2023-04-29T04:25:46.758Z,96797.88
2023-04-29T04:28:51.228Z,96796.06
2023-04-29T04:31:58.855Z,96795.06
2023-04-29T04:34:44.981Z,96799.06
2023-04-29T04:37:30.706Z,96804.69
2023-04-29T04:40:18.772Z,96804.19
2023-04-29T04:43:24.604Z,96809.81
2023-04-29T04:46:14.400Z,96809.28
2023-04-29T04:49:20.452Z,96809.06
2023-04-29T04:52:11.973Z,96813.88
2023-04-29T04:54:57.346Z,96812.81
2023-04-29T04:57:45.212Z,96815.22
2023-04-29T05:00:30.629Z,96819.22
2023-04-29T05:03:16.204Z,96821.66
2023-04-29T05:06:02.042Z,96822.19
2023-04-29T05:08:48.757Z,96822.75
2023-04-29T05:11:35.191Z,96818.50
2023-04-29T05:14:30.201Z,96823.34
2023-04-29T05:17:15.912Z,96814.03
2023-04-29T05:20:01.780Z,96813.78
2023-04-29T05:22:48.497Z,96811.13
2023-04-29T05:25:34.421Z,96812.25
2023-04-29T05:28:20.239Z,96816.56
2023-04-29T05:31:06.404Z,96818.22
2023-04-29T05:33:52.308Z,96823.56
2023-04-29T05:36:37.874Z,96823.34
2023-04-29T05:39:23.947Z,96827.41
2023-04-29T05:42:20.173Z,96832.19
2023-04-29T05:45:09.674Z,96831.19
2023-04-29T05:47:55.678Z,96831.75
2023-04-29T05:50:41.818Z,96834.44
2023-04-29T05:53:27.400Z,96839.59
2023-04-29T05:56:13.137Z,96841.25
2023-04-29T05:58:59.259Z,96841.81
2023-04-29T06:01:45.283Z,96837.31
2023-04-29T06:04:31.367Z,96838.41
2023-04-29T06:07:36.401Z,96840.28
2023-04-29T06:10:42.345Z,96843.81
2023-04-29T06:13:30.244Z,96850.28
2023-04-29T06:16:16.097Z,96857.22
2023-04-29T06:19:02.143Z,96856.16
2023-04-29T06:21:47.661Z,96860.97
2023-04-29T06:24:32.914Z,96866.84
2023-04-29T06:27:18.864Z,96859.72
2023-04-29T06:30:04.839Z,96871.97
2023-04-29T06:32:50.375Z,96864.78
2023-04-29T06:35:40.189Z,96868.00
2023-04-29T06:38:29.203Z,96870.94
2023-04-29T06:41:32.101Z,96871.22
2023-04-29T06:44:27.668Z,96871.47
2023-04-29T06:47:22.621Z,96868.00
2023-04-29T06:50:25.043Z,96861.06
2023-04-29T06:53:10.846Z,96868.00
2023-04-29T06:55:56.726Z,96864.28
2023-04-29T06:58:42.193Z,96872.06
2023-04-29T07:01:27.629Z,96863.25
2023-04-29T07:04:13.185Z,96868.88
2023-04-29T07:06:59.699Z,96872.88
2023-04-29T07:09:46.033Z,96876.06
2023-04-29T07:12:31.319Z,96871.81
2023-04-29T07:15:16.917Z,96872.06
2023-04-29T07:18:06.741Z,96871.00
2023-04-29T07:20:53.083Z,96869.13
2023-04-29T07:23:38.748Z,96866.44
2023-04-29T07:26:24.210Z,96877.13
2023-04-29T07:29:09.669Z,96874.72
2023-04-29T07:31:55.103Z,96874.47
2023-04-29T07:34:40.466Z,96876.59
2023-04-29T07:37:26.030Z,96871.22
2023-04-29T07:40:12.063Z,96873.34
2023-04-29T07:42:57.819Z,96876.78
2023-04-29T07:45:43.157Z,96877.84
2023-04-29T07:48:29.080Z,96876.75
2023-04-29T07:51:15.509Z,96873.03
2023-04-29T07:54:01.349Z,96884.50
2023-04-29T07:56:46.769Z,96883.16
2023-04-29T07:59:32.691Z,96885.56
2023-04-29T08:02:18.670Z,96884.44
2023-04-29T08:05:06.581Z,96887.03
2023-04-29T08:07:52.494Z,96895.03
2023-04-29T08:10:41.005Z,96899.88
2023-04-29T08:13:28.197Z,96894.50
2023-04-29T08:16:13.680Z,96897.16
2023-04-29T08:18:59.340Z,96900.91
2023-04-29T08:21:44.728Z,96896.13
2023-04-29T08:24:31.172Z,96905.75
2023-04-29T08:27:16.577Z,96909.50
2023-04-29T08:30:02.204Z,96907.88
2023-04-29T08:32:47.879Z,96909.44
2023-04-29T08:35:33.779Z,96912.06
2023-04-29T08:38:19.740Z,96917.91
2023-04-29T08:41:09.387Z,96917.59
2023-04-29T08:43:54.588Z,96913.31
2023-04-29T08:46:40.706Z,96920.03
2023-04-29T08:49:26.578Z,96929.94
2023-04-29T08:52:12.364Z,96933.13
2023-04-29T08:54:59.585Z,96926.47
2023-04-29T08:57:50.368Z,96931.03
2023-04-29T09:00:37.083Z,96932.34
2023-04-29T09:03:36.286Z,96932.59
2023-04-29T09:06:21.817Z,96932.59
2023-04-29T09:09:07.735Z,96936.84
2023-04-29T09:11:53.498Z,96932.22
2023-04-29T09:14:38.925Z,96932.97
2023-04-29T09:17:47.282Z,96941.09
2023-04-29T09:20:32.875Z,96946.63
2023-04-29T09:23:18.230Z,96941.72
2023-04-29T09:26:03.952Z,96943.09
2023-04-29T09:29:11.884Z,96938.22
2023-04-29T09:31:58.977Z,96940.91
2023-04-29T09:34:44.624Z,96947.63
2023-04-29T09:37:30.947Z,96954.00
2023-04-29T09:40:50.239Z,96947.25
2023-04-29T09:43:42.490Z,96950.13
2023-04-29T09:46:27.839Z,96945.47
2023-04-29T09:49:27.766Z,96949.78
2023-04-29T09:52:16.783Z,96950.84
2023-04-29T09:55:06.281Z,96957.31
2023-04-29T09:57:51.933Z,96955.72
2023-04-29T10:00:37.598Z,96945.47
2023-04-29T10:03:23.333Z,96955.16
2023-04-29T10:06:09.151Z,96955.16
2023-04-29T10:08:55.295Z,96958.41
2023-04-29T10:11:41.131Z,96957.41
2023-04-29T10:14:27.741Z,96948.88
2023-04-29T10:17:37.078Z,96959.16
2023-04-29T10:20:24.426Z,96960.00
2023-04-29T10:23:12.546Z,96957.63
2023-04-29T10:26:01.037Z,96953.06
2023-04-29T10:28:48.119Z,96953.31
2023-04-29T10:31:35.605Z,96955.06
2023-04-29T10:34:22.172Z,96953.56
2023-04-29T10:37:16.819Z,96946.94
2023-04-29T10:40:16.246Z,96946.19
2023-04-29T10:43:01.877Z,96939.13
2023-04-29T10:45:47.448Z,96944.44
2023-04-29T10:48:32.802Z,96949.47
2023-04-29T10:51:33.513Z,96947.50
2023-04-29T10:54:25.459Z,96944.78
2023-04-29T10:57:21.146Z,96941.09
2023-04-29T11:00:07.515Z,96942.16
2023-04-29T11:02:56.881Z,96937.94
2023-04-29T11:05:42.557Z,96949.81
2023-04-29T11:08:28.361Z,96953.06
2023-04-29T11:11:15.033Z,96946.69
2023-04-29T11:14:03.990Z,96950.53
2023-04-29T11:16:53.623Z,96937.16
2023-04-29T11:19:46.661Z,96948.41
2023-04-29T11:22:33.888Z,96940.88
2023-04-29T11:25:19.529Z,96943.56
2023-04-29T11:28:05.842Z,96939.72
2023-04-29T11:30:51.812Z,96937.19
2023-04-29T11:33:37.154Z,96946.03
2023-04-29T11:36:22.630Z,96937.41
2023-04-29T11:39:08.468Z,96945.28
2023-04-29T11:42:06.753Z,96934.59
2023-04-29T11:44:54.513Z,96941.06
2023-04-29T11:47:47.049Z,96946.09
2023-04-29T11:50:32.893Z,96948.78
2023-04-29T11:53:22.234Z,96949.63
2023-04-29T11:56:11.854Z,96948.69
2023-04-29T11:58:58.352Z,96953.13
2023-04-29T12:01:44.014Z,96955.59
2023-04-29T12:04:29.760Z,96951.16
2023-04-29T12:07:19.409Z,96953.72
2023-04-29T12:10:12.073Z,96956.38
2023-04-29T12:12:58.752Z,96954.28
2023-04-29T12:15:46.563Z,96955.81
2023-04-29T12:18:32.217Z,96953.63
2023-04-29T12:21:17.884Z,96955.75
2023-04-29T12:24:03.679Z,96956.59
2023-04-29T12:26:49.708Z,96955.28
2023-04-29T12:29:40.657Z,96952.03
2023-04-29T12:32:26.393Z,96958.91
2023-04-29T12:35:18.452Z,96954.50
2023-04-29T12:38:04.463Z,96951.94
2023-04-29T12:40:51.067Z,96953.66
2023-04-29T12:43:37.409Z,96952.78
2023-04-29T12:46:23.750Z,96964.50
2023-04-29T12:49:09.251Z,96960.00
2023-04-29T12:51:54.708Z,96962.03
2023-04-29T12:54:44.127Z,96962.78
2023-04-29T12:57:29.760Z,96964.06
2023-04-29T13:00:15.600Z,96961.28
2023-04-29T13:03:01.805Z,96966.75
2023-04-29T13:05:51.311Z,96967.38
2023-04-29T13:08:37.899Z,96969.59
2023-04-29T13:11:23.960Z,96973.69
2023-04-29T13:14:09.796Z,96963.84
2023-04-29T13:16:55.385Z,96965.00
2023-04-29T13:19:51.320Z,96974.72
2023-04-29T13:22:38.164Z,96975.06
2023-04-29T13:25:23.667Z,96982.94
2023-04-29T13:28:08.884Z,96979.97
2023-04-29T13:30:54.608Z,96977.81
2023-04-29T21:48:18.441Z,97465.28
2023-04-29T21:51:05.350Z,97462.25
2023-04-29T21:53:51.345Z,97463.13
2023-04-29T21:56:37.248Z,97465.25
2023-04-29T21:59:22.941Z,97473.00
2023-04-29T22:02:21.728Z,97475.28
2023-04-29T22:05:08.291Z,97465.13
2023-04-29T22:07:54.981Z,97468.78
2023-04-29T22:10:41.498Z,97466.56
2023-04-29T22:13:27.371Z,97474.69
2023-04-29T22:16:13.101Z,97475.50
2023-04-29T22:18:58.562Z,97486.09
2023-04-29T22:21:44.566Z,97482.84
2023-04-29T22:24:29.934Z,97482.84
2023-04-29T22:27:15.928Z,97482.84
2023-04-29T22:30:01.712Z,97493.41
2023-04-29T22:32:47.107Z,97489.38
2023-04-29T22:35:32.610Z,97488.38
2023-04-29T22:38:18.167Z,97487.34
2023-04-29T22:41:04.522Z,97490.59
2023-04-29T22:43:52.117Z,97493.84
2023-04-29T22:46:37.640Z,97497.06
2023-04-29T22:49:23.225Z,97496.66
2023-04-29T22:52:08.893Z,97494.03
2023-04-29T22:54:54.537Z,97497.47
2023-04-29T22:57:40.063Z,97501.13
2023-04-29T23:00:25.438Z,97494.03
2023-04-29T23:03:10.881Z,97499.09
2023-04-29T23:06:00.612Z,97493.19
2023-04-29T23:08:46.012Z,97496.66
2023-04-29T23:11:32.571Z,97498.28
2023-04-29T23:14:20.876Z,97505.19
2023-04-29T23:17:06.556Z,97502.56
2023-04-29T23:19:52.253Z,97499.88
2023-04-29T23:22:38.044Z,97505.41
2023-04-29T23:25:23.415Z,97506.41
2023-04-29T23:28:09.311Z,97510.06
2023-04-29T23:30:55.051Z,97516.38
2023-04-29T23:33:40.330Z,97504.00
2023-04-29T23:36:26.006Z,97504.00
2023-04-29T23:39:11.374Z,97506.63
2023-04-29T23:41:56.849Z,97498.69
2023-04-29T23:44:42.493Z,97499.50
2023-04-29T23:47:28.080Z,97489.53
2023-04-29T23:50:14.096Z,97492.97
2023-04-29T23:52:59.521Z,97494.59
2023-04-29T23:55:45.154Z,97491.72
2023-04-29T23:58:30.728Z,97499.66
